createdAt,value
2019-03-26T00:02:07.944Z,28.92
2019-03-26T00:04:38.755Z,30.92
2019-03-26T00:07:09.493Z,32.25
2019-03-26T00:09:39.986Z,33.85
2019-03-26T00:12:10.698Z,35.45
2019-03-26T00:14:41.440Z,35.35
2019-03-26T00:17:12.124Z,36.93
2019-03-26T00:19:43.024Z,36.95
2019-03-26T00:22:13.981Z,37.98
2019-03-26T00:24:44.572Z,37.48
2019-03-26T00:27:15.180Z,37.80
2019-03-26T00:29:45.757Z,35.08
2019-03-26T00:32:16.679Z,34.35
2019-03-26T00:34:47.343Z,35.43
2019-03-26T00:37:17.866Z,32.78
2019-03-26T00:39:48.622Z,32.23
2019-03-26T00:42:19.240Z,32.28
2019-03-26T00:44:49.668Z,31.12
2019-03-26T00:47:20.326Z,31.27
2019-03-26T00:49:51.223Z,32.88
2019-03-26T00:52:21.729Z,31.00
2019-03-26T00:54:52.360Z,29.92
2019-03-26T00:57:23.283Z,31.35
2019-03-26T00:59:53.988Z,31.07
2019-03-26T01:02:24.713Z,29.95
2019-03-26T01:04:55.463Z,31.85
2019-03-26T01:07:26.133Z,31.77
2019-03-26T01:09:57.174Z,31.12
2019-03-26T01:12:37.548Z,28.00
2019-03-26T01:15:21.320Z,27.42
2019-03-26T01:17:53.596Z,27.35
2019-03-26T01:20:24.447Z,26.52
2019-03-26T01:22:55.118Z,24.90
2019-03-26T01:25:25.842Z,25.25
2019-03-26T01:27:57.835Z,24.60
2019-03-26T01:30:29.597Z,24.82
2019-03-26T01:33:01.043Z,23.25
2019-03-26T01:35:33.191Z,25.00
2019-03-26T01:38:19.120Z,22.65
2019-03-26T01:40:50.346Z,22.93
2019-03-26T01:43:21.201Z,23.75
2019-03-26T01:45:51.976Z,22.60
2019-03-26T01:48:22.883Z,23.40
2019-03-26T01:50:53.608Z,22.52
2019-03-26T01:53:24.254Z,22.25
2019-03-26T01:55:54.976Z,21.50
2019-03-26T01:58:25.857Z,23.42
2019-03-26T02:00:56.708Z,24.50
2019-03-26T02:03:28.820Z,23.95
2019-03-26T02:05:59.667Z,24.40
2019-03-26T02:08:31.724Z,26.77
2019-03-26T02:11:05.972Z,26.17
2019-03-26T02:13:36.842Z,23.80
2019-03-26T02:16:07.940Z,24.87
2019-03-26T02:18:41.713Z,23.83
2019-03-26T02:21:15.475Z,24.27
2019-03-26T02:23:46.434Z,24.50
2019-03-26T02:26:17.501Z,24.60
2019-03-26T02:28:48.338Z,23.45
2019-03-26T02:31:19.236Z,25.23
2019-03-26T02:33:50.224Z,24.50
2019-03-26T02:36:21.170Z,23.47
2019-03-26T02:38:53.275Z,24.23
2019-03-26T02:41:24.172Z,25.77
2019-03-26T02:43:55.340Z,24.40
2019-03-26T02:46:29.089Z,26.07
2019-03-26T02:49:00.481Z,24.37
2019-03-26T02:51:31.313Z,26.00
2019-03-26T02:54:02.544Z,25.80
2019-03-26T02:56:33.455Z,24.45
2019-03-26T02:59:04.168Z,26.00
2019-03-26T03:01:39.402Z,25.12
2019-03-26T03:04:10.547Z,24.47
2019-03-26T03:06:41.776Z,25.55
2019-03-26T03:09:12.879Z,25.37
2019-03-26T03:11:43.439Z,24.92
2019-03-26T03:14:14.048Z,22.60
2019-03-26T03:16:44.960Z,48.20
2019-03-26T03:19:16.182Z,25.70
2019-03-26T03:22:06.508Z,24.67
2019-03-26T03:24:37.106Z,26.42
2019-03-26T03:27:08.013Z,25.80
2019-03-26T03:29:38.780Z,22.65
2019-03-26T03:32:09.554Z,21.90
2019-03-26T03:34:40.316Z,19.48
2019-03-26T03:37:11.124Z,17.92
2019-03-26T03:39:41.930Z,21.37
2019-03-26T03:42:13.447Z,20.57
2019-03-26T03:44:44.735Z,21.05
2019-03-26T03:47:15.304Z,21.17
2019-03-26T03:49:46.157Z,24.35
2019-03-26T03:52:18.349Z,17.92
2019-03-26T03:54:50.461Z,20.92
2019-03-26T03:57:25.760Z,20.45
2019-03-26T03:59:56.570Z,20.05
2019-03-26T04:02:27.458Z,20.43
2019-03-26T04:04:58.267Z,20.50
2019-03-26T04:07:29.889Z,19.02
2019-03-26T04:10:00.622Z,19.98
2019-03-26T04:12:31.318Z,19.87
2019-03-26T04:15:02.178Z,18.55
2019-03-26T04:17:34.081Z,18.25
2019-03-26T04:20:07.319Z,19.50
2019-03-26T04:22:38.243Z,18.98
2019-03-26T04:25:09.209Z,19.23
2019-03-26T04:27:39.960Z,18.92
2019-03-26T04:30:10.920Z,20.35
2019-03-26T04:32:42.076Z,19.23
2019-03-26T04:35:13.360Z,19.95
2019-03-26T04:37:44.118Z,20.17
2019-03-26T04:40:14.795Z,20.57
2019-03-26T04:42:45.850Z,19.73
2019-03-26T04:45:17.326Z,20.35
2019-03-26T04:47:48.008Z,19.62
2019-03-26T04:50:18.712Z,20.37
2019-03-26T04:52:49.456Z,21.30
2019-03-26T04:55:20.263Z,20.05
2019-03-26T04:57:50.914Z,20.08
2019-03-26T05:00:27.301Z,20.23
2019-03-26T05:02:58.144Z,19.67
2019-03-26T05:05:28.838Z,20.37
2019-03-26T05:08:00.019Z,19.82
2019-03-26T05:10:31.363Z,20.08
2019-03-26T05:13:02.393Z,21.12
2019-03-26T05:15:35.489Z,20.85
2019-03-26T05:18:15.156Z,21.00
2019-03-26T05:20:49.234Z,21.87
2019-03-26T05:23:20.251Z,21.60
2019-03-26T05:25:51.182Z,20.77
2019-03-26T05:28:22.167Z,20.55
2019-03-26T05:30:52.934Z,21.57
2019-03-26T05:33:24.488Z,20.77
2019-03-26T05:35:55.224Z,20.82
2019-03-26T05:38:28.127Z,21.27
2019-03-26T05:40:59.948Z,23.40
2019-03-26T05:43:30.773Z,24.05
2019-03-26T05:46:01.524Z,24.63
2019-03-26T05:48:32.239Z,23.65
2019-03-26T05:51:11.364Z,25.20
2019-03-26T05:53:43.343Z,24.60
2019-03-26T05:56:14.294Z,25.48
2019-03-26T05:58:50.245Z,26.97
2019-03-26T06:01:22.295Z,25.70
2019-03-26T06:03:53.138Z,25.97
2019-03-26T06:06:24.215Z,28.00
2019-03-26T06:08:54.935Z,28.85
2019-03-26T06:11:25.619Z,29.00
2019-03-26T06:13:56.361Z,27.93
2019-03-26T06:16:37.873Z,27.25
2019-03-26T06:18:59.536Z,27.65
2019-03-26T06:21:30.183Z,27.48
2019-03-26T06:24:00.951Z,27.37
2019-03-26T06:26:31.841Z,27.65
2019-03-26T06:29:02.328Z,25.80
2019-03-26T06:31:33.068Z,24.80
2019-03-26T06:34:03.875Z,23.95
2019-03-26T06:36:35.735Z,24.18
2019-03-26T06:39:09.819Z,21.87
2019-03-26T06:41:41.618Z,22.07
2019-03-26T06:44:15.512Z,22.93
2019-03-26T06:46:46.258Z,22.90
2019-03-26T06:49:16.935Z,22.32
2019-03-26T06:51:47.911Z,22.60
2019-03-26T06:54:19.542Z,23.25
2019-03-26T06:56:50.484Z,22.70
2019-03-26T06:59:22.041Z,23.87
2019-03-26T07:01:53.087Z,24.12
2019-03-26T07:04:25.368Z,23.22
2019-03-26T07:06:57.868Z,22.48
2019-03-26T07:09:28.130Z,23.18
2019-03-26T07:11:58.741Z,23.85
2019-03-26T07:14:29.548Z,24.45
2019-03-26T07:17:00.311Z,23.57
2019-03-26T07:19:31.080Z,24.80
2019-03-26T07:22:01.719Z,23.50
2019-03-26T07:24:32.909Z,23.65
2019-03-26T07:27:24.514Z,22.62
2019-03-26T07:29:55.361Z,22.42
2019-03-26T07:32:26.022Z,21.42
2019-03-26T07:34:56.708Z,22.77
2019-03-26T07:37:27.534Z,21.45
2019-03-26T07:39:58.480Z,21.68
2019-03-26T07:42:29.282Z,22.20
2019-03-26T07:44:59.981Z,21.68
2019-03-26T07:47:31.330Z,22.62
2019-03-26T07:50:03.031Z,21.42
2019-03-26T07:52:43.304Z,21.65
2019-03-26T07:55:15.626Z,21.95
2019-03-26T07:57:46.428Z,21.30
2019-03-26T08:00:17.501Z,21.30
2019-03-26T08:02:48.479Z,19.52
2019-03-26T08:05:29.298Z,21.05
2019-03-26T08:07:58.268Z,20.35
2019-03-26T08:10:28.172Z,19.80
2019-03-26T08:13:00.242Z,20.65
2019-03-26T08:15:31.206Z,20.15
2019-03-26T08:18:02.409Z,20.57
2019-03-26T08:20:35.883Z,20.40
2019-03-26T08:23:06.904Z,21.62
2019-03-26T08:25:39.436Z,21.15
2019-03-26T08:28:10.275Z,21.15
2019-03-26T08:30:50.024Z,20.70
2019-03-26T08:33:19.701Z,20.37
2019-03-26T08:35:50.941Z,21.10
2019-03-26T08:38:39.500Z,22.70
2019-03-26T08:41:38.321Z,21.62
2019-03-26T08:44:10.472Z,21.85
2019-03-26T08:46:54.523Z,22.00
2019-03-26T08:49:30.452Z,22.32
2019-03-26T08:51:57.639Z,23.20
2019-03-26T08:54:29.054Z,22.05
2019-03-26T08:57:00.782Z,33.02
2019-03-26T08:59:40.527Z,20.12
2019-03-26T09:02:14.111Z,21.02
2019-03-26T09:04:45.441Z,19.85
2019-03-26T09:07:16.579Z,20.77
2019-03-26T09:09:47.386Z,20.72
2019-03-26T09:12:22.374Z,21.27
2019-03-26T09:14:54.278Z,35.15
2019-03-26T09:17:25.152Z,20.50
2019-03-26T09:19:55.836Z,18.75
2019-03-26T09:22:26.787Z,19.87
2019-03-26T09:24:57.431Z,20.15
2019-03-26T09:27:28.345Z,21.52
2019-03-26T09:29:59.202Z,19.85
2019-03-26T09:32:29.822Z,19.62
2019-03-26T09:35:00.625Z,20.43
2019-03-26T09:37:31.359Z,19.27
2019-03-26T09:40:03.390Z,19.67
2019-03-26T09:42:34.511Z,20.25
2019-03-26T09:45:06.043Z,20.72
2019-03-26T09:47:36.587Z,19.67
2019-03-26T09:50:10.253Z,19.65
2019-03-26T09:52:41.168Z,19.67
2019-03-26T09:55:12.286Z,18.55
2019-03-26T09:57:42.849Z,19.45
2019-03-26T10:00:13.838Z,19.23
2019-03-26T10:02:44.536Z,30.95
2019-03-26T10:05:15.333Z,29.02
2019-03-26T10:07:46.803Z,20.45
2019-03-26T10:10:17.635Z,20.17
2019-03-26T10:12:48.243Z,19.50
2019-03-26T10:15:18.921Z,19.52
2019-03-26T10:17:49.721Z,18.98
2019-03-26T10:20:20.438Z,19.77
2019-03-26T10:22:51.192Z,20.25
2019-03-26T10:25:22.445Z,19.90
2019-03-26T10:27:52.949Z,21.45
2019-03-26T10:30:26.274Z,19.37
2019-03-26T10:32:56.898Z,20.17
2019-03-26T10:35:27.578Z,19.80
2019-03-26T10:37:58.426Z,21.05
2019-03-26T10:40:31.530Z,20.08
2019-03-26T10:43:02.995Z,20.27
2019-03-26T10:45:33.550Z,20.52
2019-03-26T10:48:04.434Z,20.05
2019-03-26T10:50:35.097Z,20.27
2019-03-26T10:53:05.693Z,21.15
2019-03-26T10:55:36.489Z,21.77
2019-03-26T10:58:07.479Z,44.13
2019-03-26T11:00:37.844Z,24.45
2019-03-26T11:03:08.532Z,23.20
2019-03-26T11:05:39.372Z,24.07
2019-03-26T11:08:10.112Z,24.02
2019-03-26T11:10:40.616Z,23.45
2019-03-26T11:13:11.355Z,22.55
2019-03-26T11:15:41.977Z,22.45
2019-03-26T11:18:12.612Z,22.52
2019-03-26T11:20:43.218Z,21.87
2019-03-26T11:23:13.747Z,22.65
2019-03-26T11:25:44.564Z,20.65
2019-03-26T11:28:15.121Z,20.43
2019-03-26T11:30:45.642Z,20.00
2019-03-26T11:33:16.978Z,20.15
2019-03-26T11:35:48.038Z,19.98
2019-03-26T11:38:18.832Z,20.40
2019-03-26T11:40:49.561Z,20.77
2019-03-26T11:43:20.220Z,20.20
2019-03-26T11:45:50.869Z,21.57
2019-03-26T11:48:21.611Z,20.75
2019-03-26T11:50:52.162Z,20.23
2019-03-26T11:53:22.939Z,21.07
2019-03-26T11:55:53.755Z,20.40
2019-03-26T11:58:30.559Z,19.60
2019-03-26T12:00:56.383Z,19.80
2019-03-26T12:03:27.039Z,20.25
2019-03-26T12:05:57.779Z,19.92
2019-03-26T12:08:28.524Z,18.82
2019-03-26T12:10:59.184Z,19.23
2019-03-26T12:13:29.956Z,19.00
2019-03-26T12:16:00.691Z,19.40
2019-03-26T12:18:31.319Z,18.77
2019-03-26T12:21:02.308Z,18.62
2019-03-26T12:23:32.884Z,19.15
2019-03-26T12:26:03.640Z,19.07
2019-03-26T12:28:34.411Z,18.85
2019-03-26T12:31:05.170Z,18.07
2019-03-26T12:33:35.758Z,18.02
2019-03-26T12:36:06.414Z,19.25
2019-03-26T12:38:37.175Z,19.32
2019-03-26T12:41:08.633Z,17.95
2019-03-26T12:43:40.149Z,18.65
2019-03-26T12:46:10.718Z,17.77
2019-03-26T12:48:41.374Z,18.37
2019-03-26T12:51:12.044Z,18.10
2019-03-26T12:53:43.163Z,18.80
2019-03-26T12:56:13.937Z,18.40
2019-03-26T12:58:44.594Z,18.35
2019-03-26T13:01:15.334Z,18.10
2019-03-26T13:03:45.943Z,17.52
2019-03-26T13:06:16.747Z,17.45
2019-03-26T13:08:47.409Z,18.07
2019-03-26T13:11:17.941Z,17.75
2019-03-26T13:13:48.633Z,17.30
2019-03-26T13:16:19.666Z,19.37
2019-03-26T13:18:50.385Z,19.95
2019-03-26T13:21:21.134Z,19.85
2019-03-26T13:23:51.828Z,21.95
2019-03-26T13:26:22.487Z,21.77
2019-03-26T13:28:53.183Z,20.08
2019-03-26T13:31:23.975Z,20.08
2019-03-26T13:33:54.573Z,21.75
2019-03-26T13:36:25.113Z,20.37
2019-03-26T13:38:55.646Z,18.87
2019-03-26T13:41:26.413Z,19.45
2019-03-26T13:43:57.328Z,20.25
2019-03-26T13:46:27.943Z,19.52
2019-03-26T13:48:58.525Z,19.35
2019-03-26T13:51:29.532Z,20.77
2019-03-26T13:54:00.340Z,20.12
2019-03-26T13:56:30.860Z,20.82
2019-03-26T13:59:01.539Z,20.35
2019-03-26T14:01:32.247Z,20.37
2019-03-26T14:04:02.910Z,20.48
2019-03-26T14:06:33.603Z,19.62
2019-03-26T14:09:05.859Z,20.15
2019-03-26T14:11:36.477Z,20.48
2019-03-26T14:14:07.137Z,18.85
2019-03-26T14:16:37.891Z,18.75
2019-03-26T14:19:08.642Z,18.77
2019-03-26T14:21:39.298Z,19.25
2019-03-26T14:24:13.043Z,19.57
2019-03-26T14:26:41.693Z,19.15
2019-03-26T14:29:12.410Z,19.50
2019-03-26T14:31:43.189Z,18.75
2019-03-26T14:34:13.987Z,18.55
2019-03-26T14:36:44.384Z,19.82
2019-03-26T14:39:15.211Z,18.60
2019-03-26T14:41:45.747Z,19.35
2019-03-26T14:44:16.198Z,20.40
2019-03-26T14:46:46.878Z,19.52
2019-03-26T14:49:17.595Z,20.20
2019-03-26T14:51:48.108Z,20.15
2019-03-26T14:54:18.787Z,21.82
2019-03-26T14:56:49.310Z,21.68
2019-03-26T14:59:20.074Z,22.07
2019-03-26T15:01:50.587Z,23.20
2019-03-26T15:04:21.369Z,22.17
2019-03-26T15:06:52.119Z,22.75
2019-03-26T15:09:22.729Z,24.80
2019-03-26T15:11:53.495Z,25.52
2019-03-26T15:14:24.255Z,23.57
2019-03-26T15:16:54.812Z,23.83
2019-03-26T15:19:25.459Z,24.47
2019-03-26T15:21:55.969Z,25.52
2019-03-26T15:24:26.564Z,23.10
2019-03-26T15:26:57.175Z,24.05
2019-03-26T15:29:27.970Z,24.40
2019-03-26T15:31:58.636Z,24.55
2019-03-26T15:34:36.037Z,24.07
2019-03-26T15:37:01.102Z,24.30
2019-03-26T15:39:31.782Z,24.85
2019-03-26T15:42:02.455Z,23.73
2019-03-26T15:44:33.101Z,22.98
2019-03-26T15:47:03.891Z,24.82
2019-03-26T15:49:34.570Z,23.32
2019-03-26T15:52:05.260Z,24.70
2019-03-26T15:54:35.968Z,24.77
2019-03-26T15:57:06.797Z,25.15
2019-03-26T15:59:37.534Z,23.12
2019-03-26T16:02:08.308Z,22.70
2019-03-26T16:04:38.962Z,23.42
2019-03-26T16:07:09.651Z,23.18
2019-03-26T16:09:40.483Z,22.52
2019-03-26T16:12:11.251Z,22.82
2019-03-26T16:14:41.953Z,24.40
2019-03-26T16:17:12.647Z,22.70
2019-03-26T16:19:43.253Z,24.35
2019-03-26T16:22:13.833Z,23.75
2019-03-26T16:24:44.434Z,24.20
2019-03-26T16:27:15.017Z,23.92
2019-03-26T16:29:45.753Z,23.83
2019-03-26T16:32:16.159Z,22.82
2019-03-26T16:34:46.931Z,23.85
2019-03-26T16:37:17.550Z,23.05
2019-03-26T16:39:48.225Z,24.60
2019-03-26T16:42:19.361Z,23.73
2019-03-26T16:44:50.171Z,23.55
2019-03-26T16:47:20.837Z,22.50
2019-03-26T16:49:51.664Z,22.70
2019-03-26T16:52:22.478Z,23.52
2019-03-26T16:54:53.421Z,22.60
2019-03-26T16:57:23.936Z,22.55
2019-03-26T16:59:54.634Z,22.82
2019-03-26T17:02:25.423Z,22.73
2019-03-26T17:04:55.905Z,23.42
2019-03-26T17:07:26.684Z,22.87
2019-03-26T17:09:57.517Z,23.50
2019-03-26T17:12:28.321Z,23.47
2019-03-26T17:14:58.890Z,22.17
2019-03-26T17:17:29.389Z,23.87
2019-03-26T17:20:00.558Z,23.77
2019-03-26T17:22:31.299Z,23.60
2019-03-26T17:25:02.059Z,23.77
2019-03-26T17:27:32.791Z,23.22
2019-03-26T17:30:03.350Z,24.23
2019-03-26T17:32:34.012Z,25.00
2019-03-26T17:35:07.144Z,26.17
2019-03-26T17:37:37.775Z,23.62
2019-03-26T17:40:08.672Z,24.07
2019-03-26T17:42:39.271Z,25.82
2019-03-26T17:45:09.958Z,26.20
2019-03-26T17:47:40.732Z,26.77
2019-03-26T17:50:11.335Z,26.07
2019-03-26T17:52:42.035Z,25.50
2019-03-26T17:55:12.899Z,25.45
2019-03-26T17:57:43.573Z,26.77
2019-03-26T18:00:16.739Z,25.95
2019-03-26T18:02:47.500Z,26.05
2019-03-26T18:05:20.540Z,25.80
2019-03-26T18:07:51.313Z,26.87
2019-03-26T18:10:21.924Z,25.97
2019-03-26T18:12:52.761Z,26.42
2019-03-26T18:15:23.466Z,26.82
2019-03-26T18:17:54.028Z,26.33
2019-03-26T18:20:32.333Z,26.80
2019-03-26T18:22:56.619Z,28.42
2019-03-26T18:25:27.171Z,28.00
2019-03-26T18:27:57.702Z,28.32
2019-03-26T18:30:28.358Z,27.62
2019-03-26T18:32:58.989Z,25.92
2019-03-26T18:35:29.764Z,26.85
2019-03-26T18:38:00.413Z,27.10
2019-03-26T18:40:31.074Z,27.52
2019-03-26T18:43:01.812Z,26.55
2019-03-26T18:45:32.620Z,28.42
2019-03-26T18:48:03.179Z,27.67
2019-03-26T18:50:33.875Z,26.20
2019-03-26T18:53:04.677Z,24.95
2019-03-26T18:55:35.271Z,24.55
2019-03-26T18:58:06.043Z,25.15
2019-03-26T19:00:38.303Z,26.20
2019-03-26T19:03:09.112Z,26.93
2019-03-26T19:05:39.899Z,27.05
2019-03-26T19:08:10.704Z,27.05
2019-03-26T19:10:41.703Z,25.57
2019-03-26T19:13:19.311Z,26.45
2019-03-26T19:15:44.557Z,27.17
2019-03-26T19:18:15.167Z,28.17
2019-03-26T19:20:45.753Z,27.50
2019-03-26T19:23:16.522Z,26.82
2019-03-26T19:25:47.152Z,27.42
2019-03-26T19:28:17.881Z,25.55
2019-03-26T19:30:48.570Z,25.60
2019-03-26T19:33:19.182Z,25.88
2019-03-26T19:35:49.894Z,25.52
2019-03-26T19:38:20.694Z,24.87
2019-03-26T19:40:52.221Z,24.70
2019-03-26T19:43:22.851Z,27.67
2019-03-26T19:45:53.403Z,27.00
2019-03-26T19:48:24.054Z,26.45
2019-03-26T19:50:54.721Z,24.92
2019-03-26T19:53:25.647Z,26.25
2019-03-26T19:55:56.365Z,26.15
2019-03-26T19:58:26.969Z,26.42
2019-03-26T20:00:57.762Z,24.92
2019-03-26T20:03:28.160Z,25.55
2019-03-26T20:05:58.892Z,26.57
2019-03-26T20:08:29.510Z,25.65
2019-03-26T20:11:00.333Z,25.85
2019-03-26T20:13:30.932Z,25.48
2019-03-26T20:16:01.425Z,27.17
2019-03-26T20:18:32.126Z,25.75
2019-03-26T20:21:02.811Z,25.97
2019-03-26T20:23:33.517Z,27.75
2019-03-26T20:26:04.537Z,26.48
2019-03-26T20:28:35.185Z,27.07
2019-03-26T20:31:05.852Z,27.07
2019-03-26T20:33:36.386Z,26.75
2019-03-26T20:36:07.181Z,26.50
2019-03-26T20:38:37.819Z,26.17
2019-03-26T20:41:08.301Z,26.70
2019-03-26T20:43:38.967Z,26.68
2019-03-26T20:46:09.473Z,25.90
2019-03-26T20:48:40.146Z,25.43
2019-03-26T20:51:10.921Z,25.60
2019-03-26T20:53:41.551Z,27.13
2019-03-26T20:56:11.984Z,25.45
2019-03-26T20:58:42.756Z,25.05
2019-03-26T21:01:13.538Z,26.70
2019-03-26T21:03:44.341Z,26.23
2019-03-26T21:06:15.084Z,26.02
2019-03-26T21:08:45.564Z,25.85
2019-03-26T21:11:16.611Z,26.27
2019-03-26T21:13:51.053Z,24.98
2019-03-26T21:16:19.411Z,25.55
2019-03-26T21:18:50.329Z,26.70
2019-03-26T21:21:21.038Z,26.55
2019-03-26T21:23:51.807Z,26.93
2019-03-26T21:26:22.464Z,26.75
2019-03-26T21:28:53.270Z,27.48
2019-03-26T21:31:23.894Z,26.60
2019-03-26T21:33:54.572Z,25.85
2019-03-26T21:36:24.915Z,27.25
2019-03-26T21:38:55.869Z,30.50
2019-03-26T21:41:26.599Z,30.23
2019-03-26T21:44:04.259Z,29.82
2019-03-26T21:46:29.096Z,29.32
2019-03-26T21:48:59.934Z,28.85
2019-03-26T21:51:30.519Z,29.63
2019-03-26T21:54:01.165Z,29.75
2019-03-26T21:56:31.942Z,30.75
2019-03-26T21:59:02.702Z,31.62
2019-03-26T22:01:33.224Z,29.60
2019-03-26T22:04:03.769Z,30.77
2019-03-26T22:06:34.974Z,30.37
2019-03-26T23:41:50.236Z,46.77
2019-03-26T23:44:25.993Z,46.48
2019-03-26T23:46:53.044Z,44.87
2019-03-26T23:49:23.587Z,39.95
2019-03-26T23:51:54.265Z,41.88
2019-03-26T23:54:24.902Z,40.38
2019-03-26T23:56:55.378Z,40.88
2019-03-26T23:59:25.923Z,42.15
